createdAt,value
2018-11-04T00:01:39.024Z,83.70
2018-11-04T00:03:42.779Z,83.80
2018-11-04T00:05:46.391Z,83.70
2018-11-04T00:07:50.906Z,84.00
2018-11-04T00:09:54.374Z,84.30
2018-11-04T00:11:58.036Z,84.10
2018-11-04T00:14:01.752Z,84.00
2018-11-04T00:16:05.356Z,84.00
2018-11-04T00:18:08.911Z,83.90
2018-11-04T00:20:13.645Z,83.80
2018-11-04T00:22:17.209Z,84.30
2018-11-04T00:24:20.757Z,84.60
2018-11-04T00:26:24.442Z,85.10
2018-11-04T00:28:27.952Z,84.10
2018-11-04T00:30:31.544Z,84.00
2018-11-04T00:32:35.111Z,84.00
2018-11-04T00:34:38.686Z,84.40
2018-11-04T00:36:42.215Z,84.30
2018-11-04T00:38:46.168Z,84.30
2018-11-04T00:40:49.729Z,84.20
2018-11-04T00:42:53.595Z,84.10
2018-11-04T00:44:57.278Z,84.20
2018-11-04T00:47:00.866Z,84.10
2018-11-04T00:49:04.764Z,83.90
2018-11-04T00:51:08.384Z,84.10
2018-11-04T00:53:11.913Z,84.50
2018-11-04T00:55:15.757Z,84.30
2018-11-04T00:57:19.298Z,84.30
2018-11-04T00:59:22.993Z,84.00
2018-11-04T01:01:26.561Z,84.00
2018-11-04T01:03:30.224Z,84.10
2018-11-04T01:05:33.800Z,84.40
2018-11-04T01:07:37.807Z,84.50
2018-11-04T01:09:41.455Z,84.30
2018-11-04T01:11:45.040Z,84.50
2018-11-04T01:13:48.768Z,84.30
2018-11-04T01:15:52.415Z,84.20
2018-11-04T01:17:55.935Z,84.20
2018-11-04T01:19:59.456Z,84.50
2018-11-04T01:22:03.277Z,85.90
2018-11-04T01:24:06.837Z,86.50
2018-11-04T01:26:10.395Z,87.30
2018-11-04T01:28:13.991Z,86.90
2018-11-04T01:30:17.913Z,86.00
2018-11-04T01:32:21.331Z,85.90
2018-11-04T01:34:25.060Z,85.50
2018-11-04T01:36:28.675Z,84.90
2018-11-04T01:38:32.452Z,85.20
2018-11-04T01:40:35.932Z,85.00
2018-11-04T01:42:40.069Z,85.20
2018-11-04T01:44:43.578Z,85.30
2018-11-04T01:46:47.239Z,86.20
2018-11-04T01:48:50.763Z,87.50
2018-11-04T01:50:54.275Z,86.90
2018-11-04T01:52:57.864Z,86.50
2018-11-04T01:55:01.537Z,86.50
2018-11-04T01:57:05.140Z,86.30
2018-11-04T01:59:08.814Z,85.80
2018-11-04T02:01:12.404Z,85.60
2018-11-04T02:03:15.944Z,85.30
2018-11-04T02:05:19.686Z,85.30
2018-11-04T02:07:23.328Z,84.90
2018-11-04T02:09:26.863Z,84.90
2018-11-04T02:11:30.368Z,85.40
2018-11-04T02:13:33.982Z,86.90
2018-11-04T02:15:37.583Z,86.30
2018-11-04T02:17:41.130Z,85.90
2018-11-04T02:19:44.650Z,85.90
2018-11-04T02:21:48.429Z,85.90
2018-11-04T02:23:51.939Z,85.90
2018-11-04T02:25:55.478Z,86.40
2018-11-04T02:27:59.005Z,86.60
2018-11-04T02:30:02.661Z,87.40
2018-11-04T02:32:06.552Z,87.20
2018-11-04T02:34:10.273Z,86.90
2018-11-04T02:36:13.812Z,86.70
2018-11-04T02:38:17.352Z,86.50
2018-11-04T02:40:21.161Z,86.50
2018-11-04T02:42:24.840Z,86.40
2018-11-04T02:44:28.400Z,86.10
2018-11-04T02:46:32.021Z,86.50
2018-11-04T02:48:35.952Z,85.90
2018-11-04T02:50:39.614Z,86.00
2018-11-04T02:52:43.233Z,87.00
2018-11-04T02:54:46.756Z,87.70
2018-11-04T02:56:50.315Z,87.70
2018-11-04T02:58:53.843Z,88.10
2018-11-04T03:00:57.474Z,89.10
2018-11-04T03:03:01.049Z,89.70
2018-11-04T03:05:05.339Z,89.60
2018-11-04T03:07:08.943Z,89.70
2018-11-04T03:09:12.687Z,89.10
2018-11-04T03:11:16.227Z,89.10
2018-11-04T03:13:19.827Z,89.10
2018-11-04T03:15:23.427Z,88.40
2018-11-04T03:17:26.965Z,87.80
2018-11-04T03:19:30.443Z,87.60
2018-11-04T03:21:34.048Z,87.00
2018-11-04T03:23:37.824Z,86.80
2018-11-04T03:25:41.460Z,86.50
2018-11-04T03:27:44.969Z,86.30
2018-11-04T03:29:48.590Z,86.30
2018-11-04T03:31:52.338Z,86.30
2018-11-04T03:33:55.907Z,86.40
2018-11-04T03:35:59.569Z,86.30
2018-11-04T03:38:03.082Z,86.10
2018-11-04T03:40:08.827Z,85.90
2018-11-04T03:42:12.427Z,85.90
2018-11-04T03:44:16.183Z,85.60
2018-11-04T03:46:19.897Z,85.80
2018-11-04T03:48:23.396Z,85.70
2018-11-04T03:50:26.945Z,85.50
2018-11-04T03:52:30.435Z,85.30
2018-11-04T03:54:34.168Z,85.50
2018-11-04T03:56:37.755Z,85.60
2018-11-04T03:58:41.330Z,85.60
2018-11-04T04:00:44.875Z,85.60
2018-11-04T04:02:48.428Z,85.60
2018-11-04T04:04:51.983Z,85.60
2018-11-04T04:06:55.655Z,85.50
2018-11-04T04:08:59.248Z,85.40
2018-11-04T04:11:02.791Z,85.10
2018-11-04T04:13:06.427Z,85.20
2018-11-04T04:15:11.015Z,85.00
2018-11-04T04:17:14.680Z,85.20
2018-11-04T04:19:18.200Z,85.60
2018-11-04T04:21:21.710Z,85.90
2018-11-04T04:23:25.250Z,85.80
2018-11-04T04:25:28.725Z,85.40
2018-11-04T04:27:32.425Z,85.40
2018-11-04T04:29:35.962Z,85.40
2018-11-04T04:31:39.486Z,85.40
2018-11-04T04:33:43.192Z,85.50
2018-11-04T04:35:49.767Z,85.30
2018-11-04T04:37:53.348Z,85.30
2018-11-04T04:39:56.943Z,86.60
2018-11-04T04:42:00.531Z,87.90
2018-11-04T04:44:04.156Z,89.20
2018-11-04T04:46:07.690Z,89.50
2018-11-04T04:48:11.523Z,88.90
2018-11-04T04:50:15.042Z,88.00
2018-11-04T04:52:18.697Z,87.30
2018-11-04T04:54:22.288Z,86.80
2018-11-04T04:56:26.005Z,86.30
2018-11-04T04:58:29.584Z,86.10
2018-11-04T05:00:33.502Z,86.70
2018-11-04T05:02:37.140Z,86.20
2018-11-04T05:04:40.712Z,85.90
2018-11-04T05:06:44.221Z,85.70
2018-11-04T05:08:48.025Z,85.60
2018-11-04T05:10:51.713Z,85.90
2018-11-04T05:12:55.278Z,86.80
2018-11-04T05:14:58.809Z,86.70
2018-11-04T05:17:02.466Z,86.60
2018-11-04T05:19:06.443Z,86.30
2018-11-04T05:21:10.096Z,86.10
2018-11-04T05:23:13.619Z,86.30
2018-11-04T05:25:17.159Z,85.80
2018-11-04T05:27:20.707Z,85.60
2018-11-04T05:29:24.415Z,85.30
2018-11-04T05:31:27.964Z,85.20
2018-11-04T05:33:31.487Z,85.30
2018-11-04T05:35:35.087Z,85.80
2018-11-04T05:37:38.716Z,85.60
2018-11-04T05:39:42.489Z,85.50
2018-11-04T05:41:46.144Z,85.00
2018-11-04T05:43:49.663Z,86.30
2018-11-04T05:45:53.378Z,85.50
2018-11-04T05:47:56.963Z,85.40
2018-11-04T05:50:00.522Z,85.50
2018-11-04T05:52:04.075Z,85.60
2018-11-04T05:54:07.736Z,85.40
2018-11-04T05:56:11.258Z,85.60
2018-11-04T05:58:14.768Z,85.40
2018-11-04T06:00:18.574Z,85.40
2018-11-04T06:02:22.117Z,85.30
2018-11-04T06:04:25.688Z,85.60
2018-11-04T06:06:29.356Z,85.40
2018-11-04T06:08:33.174Z,85.40
2018-11-04T06:10:36.823Z,85.70
2018-11-04T06:12:40.314Z,85.70
2018-11-04T06:14:43.955Z,85.70
2018-11-04T06:16:47.575Z,85.70
2018-11-04T06:18:51.177Z,85.80
2018-11-04T06:20:54.701Z,85.60
2018-11-04T06:22:58.231Z,85.50
2018-11-04T06:25:01.838Z,85.40
2018-11-04T06:27:05.787Z,85.40
2018-11-04T06:29:09.528Z,85.30
2018-11-04T06:31:13.090Z,85.90
2018-11-04T06:33:16.731Z,86.20
2018-11-04T06:35:20.682Z,86.30
2018-11-04T06:37:24.205Z,86.00
2018-11-04T06:39:27.715Z,86.30
2018-11-04T06:41:31.392Z,86.10
2018-11-04T06:43:34.928Z,85.20
2018-11-04T06:45:38.468Z,85.20
2018-11-04T06:47:42.261Z,85.20
2018-11-04T06:49:45.764Z,85.90
2018-11-04T06:51:49.504Z,85.40
2018-11-04T06:53:53.006Z,86.00
2018-11-04T06:55:56.588Z,85.60
2018-11-04T06:58:00.141Z,85.40
2018-11-04T07:00:04.150Z,85.20
2018-11-04T07:02:07.819Z,85.00
2018-11-04T07:04:26.176Z,84.90
2018-11-04T07:06:29.768Z,85.60
2018-11-04T07:08:33.417Z,86.00
2018-11-04T07:10:37.108Z,85.90
2018-11-04T07:12:40.624Z,85.50
2018-11-04T07:14:44.325Z,85.40
2018-11-04T07:16:47.931Z,85.00
2018-11-04T07:18:51.436Z,85.00
2018-11-04T07:20:54.956Z,85.10
2018-11-04T07:22:58.475Z,85.80
2018-11-04T07:25:01.986Z,85.80
2018-11-04T07:27:06.043Z,86.60
2018-11-04T07:29:10.134Z,86.40
2018-11-04T07:31:13.904Z,86.00
2018-11-04T07:33:17.654Z,85.70
2018-11-04T07:35:21.195Z,86.20
2018-11-04T07:37:24.741Z,86.10
2018-11-04T07:39:28.377Z,85.90
2018-11-04T07:41:31.924Z,85.80
2018-11-04T07:43:35.469Z,85.80
2018-11-04T07:45:39.007Z,86.00
2018-11-04T07:47:42.644Z,85.90
2018-11-04T07:49:46.260Z,85.80
2018-11-04T07:51:49.839Z,86.10
2018-11-04T07:53:53.423Z,86.10
2018-11-04T07:55:57.311Z,86.10
2018-11-04T07:58:00.796Z,86.10
2018-11-04T08:00:05.408Z,86.10
2018-11-04T08:02:09.040Z,85.90
2018-11-04T08:04:12.763Z,85.60
2018-11-04T08:06:16.267Z,85.30
2018-11-04T08:08:19.933Z,85.60
2018-11-04T08:10:23.645Z,85.80
2018-11-04T08:12:27.359Z,85.50
2018-11-04T08:14:30.950Z,85.60
2018-11-04T08:16:34.756Z,85.90
2018-11-04T08:18:38.321Z,87.20
2018-11-04T08:20:41.974Z,89.00
2018-11-04T08:22:45.482Z,89.40
2018-11-04T08:24:49.003Z,89.20
2018-11-04T08:26:52.569Z,89.00
2018-11-04T08:28:56.139Z,87.80
2018-11-04T08:30:59.675Z,88.80
2018-11-04T08:33:03.203Z,88.20
2018-11-04T08:35:06.808Z,89.10
2018-11-04T08:37:10.414Z,88.80
2018-11-04T08:39:14.152Z,88.00
2018-11-04T08:41:17.747Z,87.20
2018-11-04T08:43:21.544Z,86.60
2018-11-04T08:45:25.134Z,86.10
2018-11-04T08:47:28.716Z,85.90
2018-11-04T08:49:32.310Z,85.60
2018-11-04T08:51:35.939Z,85.40
2018-11-04T08:53:39.651Z,85.90
2018-11-04T08:55:43.217Z,86.10
2018-11-04T08:57:46.856Z,86.20
2018-11-04T08:59:50.497Z,86.00
2018-11-04T09:01:54.132Z,85.30
2018-11-04T09:03:57.651Z,85.20
2018-11-04T09:06:01.201Z,85.00
2018-11-04T09:08:04.867Z,84.80
2018-11-04T09:10:12.009Z,84.80
2018-11-04T09:12:15.519Z,84.80
2018-11-04T09:14:19.489Z,84.90
2018-11-04T09:16:23.027Z,84.90
2018-11-04T09:18:26.675Z,84.60
2018-11-04T09:20:30.311Z,85.00
2018-11-04T09:22:34.101Z,85.20
2018-11-04T09:24:37.615Z,85.20
2018-11-04T09:26:41.170Z,85.00
2018-11-04T09:28:44.885Z,85.60
2018-11-04T09:30:48.416Z,88.10
2018-11-04T09:32:52.021Z,88.10
2018-11-04T09:34:55.630Z,87.80
2018-11-04T09:36:59.091Z,87.70
2018-11-04T09:39:02.727Z,87.40
2018-11-04T09:41:06.254Z,87.00
2018-11-04T09:43:09.833Z,86.10
2018-11-04T09:45:13.402Z,85.90
2018-11-04T09:47:17.072Z,85.60
2018-11-04T09:49:20.637Z,84.90
2018-11-04T09:51:24.190Z,85.00
2018-11-04T09:53:27.695Z,85.00
2018-11-04T09:55:31.311Z,85.70
2018-11-04T09:57:34.903Z,85.70
2018-11-04T09:59:38.434Z,85.50
2018-11-04T10:01:42.190Z,85.70
2018-11-04T10:03:45.766Z,85.10
2018-11-04T10:05:49.439Z,84.90
2018-11-04T10:07:53.164Z,84.70
2018-11-04T10:09:56.718Z,85.00
2018-11-04T10:12:00.253Z,85.00
2018-11-04T10:14:04.057Z,85.20
2018-11-04T10:16:07.609Z,85.40
2018-11-04T10:18:11.326Z,85.40
2018-11-04T10:20:15.564Z,85.10
2018-11-04T10:22:18.690Z,84.60
2018-11-04T10:24:22.391Z,84.30
2018-11-04T10:26:25.940Z,84.30
2018-11-04T10:28:29.779Z,84.20
2018-11-04T10:30:33.319Z,84.60
2018-11-04T10:32:36.867Z,86.00
2018-11-04T10:34:40.443Z,85.80
2018-11-04T10:36:44.183Z,85.70
2018-11-04T10:38:47.791Z,87.50
2018-11-04T10:40:51.549Z,89.00
2018-11-04T10:42:55.091Z,88.00
2018-11-04T10:44:58.793Z,87.20
2018-11-04T10:47:02.322Z,86.40
2018-11-04T10:49:06.197Z,85.90
2018-11-04T10:51:09.784Z,86.00
2018-11-04T10:53:13.308Z,86.40
2018-11-04T10:55:16.918Z,86.20
2018-11-04T10:57:20.680Z,86.10
2018-11-04T10:59:24.294Z,87.10
2018-11-04T11:01:27.873Z,87.40
2018-11-04T11:03:31.496Z,86.70
2018-11-04T11:05:35.170Z,85.90
2018-11-04T11:07:38.801Z,86.00
2018-11-04T11:09:42.597Z,85.80
2018-11-04T11:11:46.166Z,86.20
2018-11-04T11:13:49.743Z,87.20
2018-11-04T11:15:53.336Z,86.80
2018-11-04T11:17:57.097Z,86.30
2018-11-04T11:20:00.672Z,85.80
2018-11-04T11:22:04.341Z,85.60
2018-11-04T11:24:07.915Z,85.50
2018-11-04T11:26:11.666Z,85.30
2018-11-04T11:28:15.212Z,85.10
2018-11-04T11:30:19.035Z,84.90
2018-11-04T11:32:22.559Z,84.90
2018-11-04T11:34:26.992Z,84.90
2018-11-04T11:36:30.636Z,84.80
2018-11-04T11:38:34.238Z,85.40
2018-11-04T11:40:37.796Z,85.40
2018-11-04T11:42:41.385Z,85.60
2018-11-04T11:44:45.064Z,85.30
2018-11-04T11:46:48.589Z,84.80
2018-11-04T11:48:52.175Z,84.90
2018-11-04T11:50:55.737Z,84.70
2018-11-04T11:52:59.345Z,84.70
2018-11-04T11:55:03.036Z,84.60
2018-11-04T11:57:06.958Z,84.60
2018-11-04T11:59:10.528Z,84.80
2018-11-04T12:01:14.027Z,85.00
2018-11-04T12:03:17.619Z,84.90
2018-11-04T12:05:22.190Z,84.70
2018-11-04T12:07:25.803Z,85.70
2018-11-04T12:09:29.360Z,86.30
2018-11-04T12:11:32.921Z,85.70
2018-11-04T12:13:36.547Z,86.60
2018-11-04T12:15:40.068Z,86.10
2018-11-04T12:17:43.802Z,85.80
2018-11-04T12:19:47.393Z,85.70
2018-11-04T12:21:50.899Z,85.90
2018-11-04T12:23:54.877Z,86.10
2018-11-04T12:25:58.256Z,86.20
2018-11-04T12:28:01.907Z,85.90
2018-11-04T12:30:07.421Z,85.60
2018-11-04T12:32:11.253Z,85.70
2018-11-04T12:34:14.813Z,85.40
2018-11-04T12:36:18.335Z,85.80
2018-11-04T12:38:22.014Z,86.70
2018-11-04T12:40:25.800Z,86.30
2018-11-04T12:42:29.521Z,85.70
2018-11-04T12:44:33.376Z,85.70
2018-11-04T12:46:37.021Z,85.90
2018-11-04T12:48:40.636Z,85.80
2018-11-04T12:50:44.259Z,85.70
2018-11-04T12:52:47.908Z,85.80
2018-11-04T12:54:51.472Z,85.80
2018-11-04T12:56:55.321Z,86.20
2018-11-04T12:58:59.117Z,86.50
2018-11-04T13:01:02.859Z,86.20
2018-11-04T13:03:06.626Z,85.60
2018-11-04T13:05:10.959Z,85.50
2018-11-04T13:07:14.464Z,85.60
2018-11-04T13:09:18.142Z,86.70
2018-11-04T13:11:21.785Z,86.20
2018-11-04T13:13:25.384Z,85.80
2018-11-04T13:15:28.956Z,85.70
2018-11-04T13:17:32.507Z,86.90
2018-11-04T13:19:36.170Z,86.50
2018-11-04T13:21:39.888Z,85.70
2018-11-04T13:23:43.490Z,85.20
2018-11-04T13:25:46.995Z,85.40
2018-11-04T13:27:50.891Z,85.20
2018-11-04T13:29:54.498Z,84.70
2018-11-04T13:31:58.071Z,86.60
2018-11-04T13:34:01.665Z,86.10
2018-11-04T13:36:05.864Z,85.60
2018-11-04T13:38:09.896Z,85.40
2018-11-04T13:40:13.584Z,85.50
2018-11-04T13:42:17.148Z,85.20
2018-11-04T13:44:20.847Z,84.90
2018-11-04T13:46:24.446Z,85.30
2018-11-04T13:48:27.992Z,85.20
2018-11-04T13:50:31.716Z,85.00
2018-11-04T13:52:35.299Z,85.10
2018-11-04T13:54:38.811Z,85.00
2018-11-04T13:56:42.417Z,85.40
2018-11-04T13:58:47.969Z,85.20
2018-11-04T14:00:53.783Z,85.90
2018-11-04T14:02:57.444Z,85.40
2018-11-04T14:05:00.959Z,85.30
2018-11-04T14:07:04.518Z,85.20
2018-11-04T14:09:09.075Z,85.00
2018-11-04T14:11:12.754Z,85.30
2018-11-04T14:13:16.452Z,84.90
2018-11-04T14:15:20.021Z,84.60
2018-11-04T14:17:23.751Z,84.60
2018-11-04T14:19:33.893Z,84.80
2018-11-04T14:21:37.458Z,84.60
2018-11-04T14:23:41.029Z,84.60
2018-11-04T14:25:44.821Z,85.40
2018-11-04T14:27:48.377Z,85.10
2018-11-04T14:29:51.927Z,84.90
2018-11-04T14:31:55.527Z,84.80
2018-11-04T14:33:59.054Z,84.80
2018-11-04T14:36:02.858Z,85.30
2018-11-04T14:38:06.492Z,85.50
2018-11-04T14:40:12.470Z,87.30
2018-11-04T14:42:16.016Z,88.00
2018-11-04T14:44:19.731Z,88.80
2018-11-04T14:46:23.325Z,87.80
2018-11-04T14:48:27.032Z,87.50
2018-11-04T14:50:30.802Z,87.80
2018-11-04T14:52:34.606Z,88.20
2018-11-04T14:54:38.163Z,88.10
2018-11-04T14:56:41.801Z,87.90
2018-11-04T14:58:45.361Z,87.70
2018-11-04T15:00:49.025Z,87.40
2018-11-04T15:02:52.473Z,87.20
2018-11-04T15:04:56.002Z,87.60
2018-11-04T15:06:59.695Z,88.10
2018-11-04T15:09:04.095Z,88.00
2018-11-04T15:11:07.697Z,87.80
2018-11-04T15:13:11.476Z,87.30
2018-11-04T15:15:16.569Z,87.00
2018-11-04T15:17:20.252Z,87.60
2018-11-04T15:19:23.830Z,88.10
2018-11-04T15:21:27.543Z,87.90
2018-11-04T15:23:31.103Z,87.50
2018-11-04T15:25:34.624Z,86.70
2018-11-04T15:27:38.399Z,86.90
2018-11-04T15:29:41.994Z,86.70
2018-11-04T15:31:45.672Z,86.70
2018-11-04T15:33:49.297Z,86.80
2018-11-04T15:35:52.984Z,86.60
2018-11-04T15:37:56.558Z,87.00
2018-11-04T15:40:00.175Z,86.40
2018-11-04T15:42:03.772Z,86.90
2018-11-04T15:44:07.667Z,86.60
2018-11-04T15:46:11.250Z,86.40
2018-11-04T15:48:14.812Z,86.50
2018-11-04T15:50:19.388Z,86.50
2018-11-04T15:52:23.075Z,88.50
2018-11-04T15:54:26.706Z,87.70
2018-11-04T15:56:30.328Z,87.40
2018-11-04T15:58:34.533Z,87.80
2018-11-04T16:00:38.082Z,87.70
2018-11-04T16:02:41.747Z,87.40
2018-11-04T16:04:45.315Z,87.20
2018-11-04T16:06:49.078Z,86.80
2018-11-04T16:08:52.796Z,86.50
2018-11-04T16:10:56.339Z,86.40
2018-11-04T16:12:59.884Z,86.30
2018-11-04T16:15:03.656Z,86.10
2018-11-04T16:17:07.167Z,86.00
2018-11-04T16:19:11.045Z,86.10
2018-11-04T16:21:14.612Z,85.90
2018-11-04T16:23:18.258Z,85.90
2018-11-04T16:25:21.827Z,85.90
2018-11-04T16:27:25.730Z,86.60
2018-11-04T16:29:29.319Z,87.10
2018-11-04T16:31:32.895Z,87.30
2018-11-04T16:33:36.631Z,86.90
2018-11-04T16:35:40.305Z,86.70
2018-11-04T16:37:44.754Z,86.50
2018-11-04T16:39:48.268Z,86.50
2018-11-04T16:41:51.823Z,86.50
2018-11-04T16:43:55.675Z,86.20
2018-11-04T16:45:59.353Z,86.30
2018-11-04T16:48:02.950Z,86.20
2018-11-04T16:50:07.434Z,86.10
2018-11-04T16:52:11.065Z,85.70
2018-11-04T16:54:14.655Z,85.60
2018-11-04T16:56:18.593Z,85.50
2018-11-04T16:58:22.046Z,85.40
2018-11-04T17:00:25.676Z,85.40
2018-11-04T17:02:29.278Z,85.30
2018-11-04T17:04:33.169Z,86.10
2018-11-04T17:06:36.734Z,85.90
2018-11-04T17:08:40.345Z,86.20
2018-11-04T17:10:44.390Z,86.10
2018-11-04T17:12:47.876Z,85.70
2018-11-04T17:14:51.425Z,85.60
2018-11-04T17:17:00.471Z,85.70
2018-11-04T17:19:04.381Z,86.20
2018-11-04T17:21:08.112Z,86.10
2018-11-04T17:23:11.834Z,86.00
2018-11-04T17:25:15.415Z,86.00
2018-11-04T17:27:18.948Z,86.20
2018-11-04T17:29:22.671Z,86.10
2018-11-04T17:31:26.267Z,85.80
2018-11-04T17:33:29.886Z,85.70
2018-11-04T17:35:33.471Z,85.90
2018-11-04T17:37:37.298Z,86.50
2018-11-04T17:39:40.818Z,86.80
2018-11-04T17:41:44.431Z,86.70
2018-11-04T17:43:47.991Z,87.10
2018-11-04T17:45:51.507Z,87.30
2018-11-04T17:47:55.105Z,87.50
2018-11-04T17:49:58.696Z,88.10
2018-11-04T17:52:02.210Z,87.80
2018-11-04T17:54:07.159Z,87.60
2018-11-04T17:56:10.599Z,87.20
2018-11-04T17:58:14.185Z,86.90
2018-11-04T18:00:18.173Z,86.70
2018-11-04T18:02:21.692Z,87.40
2018-11-04T18:04:25.429Z,87.00
2018-11-04T18:06:29.102Z,86.70
2018-11-04T18:08:33.251Z,86.30
2018-11-04T18:10:37.073Z,86.20
2018-11-04T18:12:40.869Z,87.00
2018-11-04T18:14:44.493Z,87.00
2018-11-04T18:16:48.281Z,86.80
2018-11-04T18:18:51.966Z,86.70
2018-11-04T18:20:55.583Z,86.60
2018-11-04T18:22:59.186Z,87.40
2018-11-04T18:25:03.446Z,87.80
2018-11-04T18:27:07.172Z,88.20
2018-11-04T18:29:10.728Z,87.80
2018-11-04T18:31:14.330Z,87.80
2018-11-04T18:33:18.134Z,87.50
2018-11-04T18:35:21.852Z,87.30
2018-11-04T18:37:25.385Z,87.20
2018-11-04T18:39:29.108Z,87.00
2018-11-04T18:41:32.665Z,86.80
2018-11-04T18:43:36.479Z,86.90
2018-11-04T18:45:40.508Z,86.80
2018-11-04T18:47:44.429Z,86.60
2018-11-04T18:49:48.219Z,86.40
2018-11-04T18:51:51.855Z,86.40
2018-11-04T18:53:55.437Z,87.70
2018-11-04T18:55:59.061Z,87.40
2018-11-04T18:58:02.731Z,87.00
2018-11-04T19:00:08.353Z,86.90
2018-11-04T19:02:11.903Z,87.20
2018-11-04T19:04:15.484Z,87.50
2018-11-04T19:06:19.115Z,87.20
2018-11-04T19:08:22.677Z,87.50
2018-11-04T19:10:26.302Z,86.50
2018-11-04T19:12:29.890Z,86.10
2018-11-04T19:14:33.429Z,86.10
2018-11-04T19:16:37.052Z,86.00
2018-11-04T19:18:40.799Z,86.40
2018-11-04T19:20:44.349Z,86.30
2018-11-04T19:22:47.959Z,86.60
2018-11-04T19:24:51.585Z,86.90
2018-11-04T19:26:55.185Z,86.80
2018-11-04T19:28:58.840Z,87.20
2018-11-04T19:31:02.396Z,87.30
2018-11-04T19:33:05.939Z,87.10
2018-11-04T19:35:10.854Z,87.00
2018-11-04T19:37:14.498Z,86.80
2018-11-04T19:39:18.166Z,86.70
2018-11-04T19:41:21.944Z,86.80
2018-11-04T19:43:25.529Z,87.00
2018-11-04T19:45:29.230Z,87.60
2018-11-04T19:47:32.800Z,87.60
2018-11-04T19:49:36.474Z,87.60
2018-11-04T19:51:40.124Z,87.30
2018-11-04T19:53:43.806Z,87.00
2018-11-04T19:55:47.363Z,88.50
2018-11-04T19:57:51.000Z,88.60
2018-11-04T19:59:54.695Z,88.30
2018-11-04T20:01:58.484Z,87.90
2018-11-04T20:04:02.140Z,87.50
2018-11-04T20:06:06.126Z,87.40
2018-11-04T20:08:09.848Z,87.30
2018-11-04T20:10:15.663Z,87.10
2018-11-04T20:12:24.580Z,87.60
2018-11-04T20:14:28.196Z,87.40
2018-11-04T20:16:31.962Z,87.20
2018-11-04T20:18:40.950Z,87.20
2018-11-04T20:20:44.599Z,87.40
2018-11-04T20:22:48.293Z,87.90
2018-11-04T20:24:57.363Z,87.70
2018-11-04T20:27:01.095Z,88.40
2018-11-04T20:29:05.012Z,88.90
2018-11-04T20:31:08.647Z,89.10
2018-11-04T20:33:13.723Z,88.80
2018-11-04T20:35:17.610Z,88.40
2018-11-04T20:37:21.230Z,88.00
2018-11-04T20:39:30.184Z,87.60
2018-11-04T20:41:34.255Z,87.30
2018-11-04T20:43:37.911Z,87.20
2018-11-04T20:45:41.503Z,87.10
2018-11-04T20:47:50.250Z,87.10
2018-11-04T20:49:59.049Z,87.10
2018-11-04T20:52:02.805Z,87.70
2018-11-04T20:54:07.009Z,87.00
2018-11-04T20:56:16.036Z,87.10
2018-11-04T20:58:19.860Z,87.00
2018-11-04T21:00:23.263Z,87.00
2018-11-04T21:02:26.986Z,87.10
2018-11-04T21:04:30.586Z,87.40
2018-11-04T21:06:34.134Z,87.10
2018-11-04T21:08:37.754Z,87.40
2018-11-04T21:10:41.574Z,87.40
2018-11-04T21:12:45.206Z,87.40
2018-11-04T21:14:48.776Z,87.70
2018-11-04T21:16:52.407Z,87.70
2018-11-04T21:18:56.043Z,87.80
2018-11-04T21:20:59.648Z,88.80
2018-11-04T21:23:03.362Z,89.30
2018-11-04T21:25:07.466Z,89.20
2018-11-04T21:27:11.006Z,89.10
2018-11-04T21:29:14.934Z,88.90
2018-11-04T21:31:18.395Z,88.80
2018-11-04T21:33:21.975Z,88.50
2018-11-04T21:35:25.609Z,88.50
2018-11-04T21:37:29.179Z,88.20
2018-11-04T21:39:32.840Z,88.00
2018-11-04T21:41:39.243Z,88.20
2018-11-04T21:43:43.128Z,88.50
2018-11-04T21:45:46.813Z,88.40
2018-11-04T21:47:50.379Z,89.00
2018-11-04T21:49:54.095Z,89.00
2018-11-04T21:51:57.707Z,89.00
2018-11-04T21:54:01.657Z,88.80
2018-11-04T21:56:05.637Z,88.80
2018-11-04T21:58:11.343Z,88.70
2018-11-04T22:00:16.113Z,88.30
2018-11-04T22:02:20.085Z,88.30
2018-11-04T22:04:23.608Z,88.40
2018-11-04T22:06:27.178Z,89.00
2018-11-04T22:08:30.859Z,89.70
2018-11-04T22:10:34.646Z,89.20
2018-11-04T22:12:38.406Z,89.00
2018-11-04T22:14:42.201Z,89.40
2018-11-04T22:16:45.863Z,89.40
2018-11-04T22:18:49.518Z,89.10
2018-11-04T22:20:53.311Z,89.00
2018-11-04T22:22:56.871Z,88.70
2018-11-04T22:25:00.530Z,88.50
2018-11-04T22:27:04.247Z,88.80
2018-11-04T22:29:07.880Z,88.60
2018-11-04T22:31:11.828Z,88.40
2018-11-04T22:33:15.409Z,88.40
2018-11-04T22:35:19.162Z,88.20
2018-11-04T22:37:22.800Z,88.10
2018-11-04T22:39:26.554Z,87.70
2018-11-04T22:41:30.078Z,88.00
2018-11-04T22:43:33.721Z,87.90
2018-11-04T22:45:37.293Z,88.00
2018-11-04T22:47:41.939Z,87.90
2018-11-04T22:49:45.556Z,88.00
2018-11-04T22:51:49.320Z,88.10
2018-11-04T22:53:52.880Z,88.00
2018-11-04T22:55:56.488Z,88.00
2018-11-04T22:58:06.070Z,88.20
2018-11-04T23:00:16.197Z,88.50
2018-11-04T23:02:20.349Z,89.10
2018-11-04T23:04:29.204Z,89.40
2018-11-04T23:06:32.862Z,89.20
2018-11-04T23:08:36.457Z,88.90
2018-11-04T23:10:40.297Z,88.60
2018-11-04T23:12:44.015Z,88.40
2018-11-04T23:14:47.606Z,88.10
2018-11-04T23:16:51.178Z,88.10
2018-11-04T23:18:54.759Z,88.00
2018-11-04T23:20:58.385Z,88.40
2018-11-04T23:23:02.139Z,88.80
2018-11-04T23:25:07.322Z,88.70
2018-11-04T23:27:11.001Z,88.50
2018-11-04T23:29:14.683Z,88.40
2018-11-04T23:31:18.260Z,88.40
2018-11-04T23:33:21.856Z,88.70
2018-11-04T23:35:25.504Z,88.90
2018-11-04T23:37:29.072Z,88.80
2018-11-04T23:39:32.637Z,88.70
2018-11-04T23:41:36.219Z,88.70
2018-11-04T23:43:39.927Z,88.90
2018-11-04T23:45:43.757Z,89.00
2018-11-04T23:47:47.382Z,90.10
2018-11-04T23:49:50.935Z,90.10
2018-11-04T23:51:54.544Z,90.00
2018-11-04T23:53:59.013Z,89.50
2018-11-04T23:56:02.676Z,89.00
2018-11-04T23:58:09.665Z,88.80
